Time;durP1;ratioP1;P1;durP2;ratioP2;P2;SDS_P1;SDS_P2;PMS_P1;PMS_P2;Temp;Humidity;BMP_temperature;BMP_pressure;BME280_temperature;BME280_humidity;BME280_pressure;Samples;Min_cycle;Max_cycle;Signal;HPM_P1;HPM_P2
2023/08/17 00:00:42;;;;;;;1.90;1.80;;;;;;;;;;5042863;28;20324;-31
2023/08/17 00:03:10;;;;;;;2.85;1.90;;;;;;;;;;5058296;28;20211;-28
2023/08/17 00:05:37;;;;;;;2.95;1.70;;;;;;;;;;5050308;28;20202;-31
2023/08/17 00:08:04;;;;;;;3.20;1.98;;;;;;;;;;5050944;28;20209;-29
2023/08/17 00:10:31;;;;;;;3.58;1.90;;;;;;;;;;5057055;28;20221;-28
2023/08/17 00:12:58;;;;;;;3.05;2.20;;;;;;;;;;5047417;28;20224;-29
2023/08/17 00:15:25;;;;;;;1.85;1.75;;;;;;;;;;5053945;28;20216;-26
2023/08/17 00:20:26;;;;;;;2.55;2.03;;;;;;;;;;5003875;28;20311;-30
2023/08/17 00:22:53;;;;;;;2.25;1.70;;;;;;;;;;5031909;28;20294;-29
2023/08/17 00:25:20;;;;;;;2.20;2.00;;;;;;;;;;5014279;28;20237;-30
2023/08/17 00:27:47;;;;;;;3.35;2.15;;;;;;;;;;5001960;28;20211;-29
2023/08/17 00:30:15;;;;;;;2.28;2.08;;;;;;;;;;5011748;28;20225;-27
2023/08/17 00:32:42;;;;;;;3.20;1.95;;;;;;;;;;5032425;28;20306;-28
2023/08/17 00:35:09;;;;;;;3.58;2.00;;;;;;;;;;5022157;28;20214;-29
2023/08/17 00:37:38;;;;;;;3.13;2.05;;;;;;;;;;5003552;28;20205;-29
2023/08/17 00:40:07;;;;;;;2.78;2.20;;;;;;;;;;5012543;28;20234;-30
2023/08/17 00:42:34;;;;;;;2.10;1.90;;;;;;;;;;5026585;28;20283;-26
2023/08/17 00:45:02;;;;;;;3.30;2.22;;;;;;;;;;5006615;28;20213;-32
2023/08/17 00:47:30;;;;;;;2.15;1.90;;;;;;;;;;5015672;28;20207;-27
2023/08/17 00:49:57;;;;;;;2.30;2.10;;;;;;;;;;5034581;28;20237;-29
2023/08/17 00:52:24;;;;;;;3.17;1.98;;;;;;;;;;5031795;28;20226;-31
2023/08/17 00:54:53;;;;;;;5.80;1.90;;;;;;;;;;5017348;28;20211;-29
2023/08/17 00:57:20;;;;;;;2.15;1.85;;;;;;;;;;5032792;28;20208;-28
2023/08/17 00:59:48;;;;;;;1.90;1.67;;;;;;;;;;5017822;28;20229;-28
2023/08/17 01:02:15;;;;;;;4.05;2.10;;;;;;;;;;5004143;28;20297;-31
2023/08/17 01:04:42;;;;;;;2.13;1.92;;;;;;;;;;5022545;28;20214;-28
2023/08/17 01:07:09;;;;;;;2.05;1.70;;;;;;;;;;5034947;28;20203;-31
2023/08/17 01:09:36;;;;;;;3.15;2.10;;;;;;;;;;5018497;28;20315;-30
2023/08/17 01:12:10;;;;;;;2.95;1.90;;;;;;;;;;5012250;28;20223;-28
2023/08/17 01:14:39;;;;;;;1.90;1.80;;;;;;;;;;5011180;28;20198;-25
2023/08/17 01:17:08;;;;;;;1.88;1.75;;;;;;;;;;5028105;28;20278;-27
2023/08/17 01:19:35;;;;;;;4.57;2.28;;;;;;;;;;5048453;28;20243;-28
2023/08/17 01:22:05;;;;;;;2.28;1.90;;;;;;;;;;5055109;28;20290;-25
2023/08/17 01:24:33;;;;;;;3.08;1.70;;;;;;;;;;5042920;28;20205;-26
2023/08/17 01:27:00;;;;;;;1.58;1.48;;;;;;;;;;5042708;28;20296;-30
2023/08/17 01:29:27;;;;;;;4.43;1.80;;;;;;;;;;5049834;28;20227;-28
2023/08/17 01:31:59;;;;;;;5.45;2.53;;;;;;;;;;5061913;28;20713;-31
2023/08/17 01:34:27;;;;;;;3.85;2.00;;;;;;;;;;5054911;28;20210;-31
2023/08/17 01:36:55;;;;;;;2.45;1.80;;;;;;;;;;5049636;28;20216;-29
2023/08/17 01:39:24;;;;;;;2.08;1.77;;;;;;;;;;5054898;28;20330;-27
2023/08/17 01:41:53;;;;;;;2.17;2.03;;;;;;;;;;5069590;28;20288;-28
2023/08/17 01:44:20;;;;;;;1.50;1.40;;;;;;;;;;5050418;28;20211;-28
2023/08/17 01:46:47;;;;;;;2.03;1.83;;;;;;;;;;5068884;28;20301;-28
2023/08/17 01:49:15;;;;;;;1.70;1.60;;;;;;;;;;5054697;28;20301;-29
2023/08/17 01:51:42;;;;;;;2.38;1.95;;;;;;;;;;5049086;28;20232;-29
2023/08/17 01:54:09;;;;;;;1.70;1.60;;;;;;;;;;5050256;28;20206;-30
2023/08/17 01:56:37;;;;;;;3.70;1.85;;;;;;;;;;5057225;28;20277;-27
2023/08/17 01:59:05;;;;;;;2.03;1.63;;;;;;;;;;5052669;28;20230;-25
2023/08/17 02:01:35;;;;;;;2.00;1.75;;;;;;;;;;5062544;28;20301;-32
2023/08/17 02:04:02;;;;;;;5.85;1.90;;;;;;;;;;5070742;28;20236;-25
2023/08/17 02:06:30;;;;;;;3.05;1.73;;;;;;;;;;5071851;28;20212;-28
2023/08/17 02:08:57;;;;;;;1.98;1.80;;;;;;;;;;5050444;28;20223;-30
2023/08/17 02:11:24;;;;;;;2.65;1.85;;;;;;;;;;5067656;28;20196;-29
2023/08/17 02:13:51;;;;;;;2.00;1.88;;;;;;;;;;5042630;28;20200;-30
2023/08/17 02:16:19;;;;;;;2.08;1.90;;;;;;;;;;5047228;28;20198;-28
2023/08/17 02:18:46;;;;;;;2.20;2.00;;;;;;;;;;5047420;28;20244;-28
2023/08/17 02:21:14;;;;;;;3.03;2.17;;;;;;;;;;5046012;28;20209;-27
2023/08/17 02:23:41;;;;;;;2.10;1.90;;;;;;;;;;5047019;28;20206;-32
2023/08/17 02:26:08;;;;;;;2.58;2.08;;;;;;;;;;5048350;28;20209;-31
2023/08/17 02:28:35;;;;;;;3.92;1.90;;;;;;;;;;5050669;28;20232;-27
2023/08/17 02:31:02;;;;;;;2.05;1.42;;;;;;;;;;5044413;28;20203;-32
2023/08/17 02:33:30;;;;;;;6.25;2.10;;;;;;;;;;5051368;28;20224;-27
2023/08/17 02:35:58;;;;;;;2.55;1.98;;;;;;;;;;5048238;28;20221;-26
2023/08/17 02:38:25;;;;;;;2.00;1.60;;;;;;;;;;5057666;28;20220;-29
2023/08/17 02:40:52;;;;;;;2.78;1.73;;;;;;;;;;5071298;28;20205;-30
2023/08/17 02:43:19;;;;;;;1.77;1.67;;;;;;;;;;5059939;28;20197;-28
2023/08/17 02:45:59;;;;;;;1.55;1.48;;;;;;;;;;5052287;28;20265;-28
2023/08/17 02:48:26;;;;;;;3.83;2.10;;;;;;;;;;5059892;28;20206;-30
2023/08/17 02:50:55;;;;;;;2.17;1.85;;;;;;;;;;5052294;28;20214;-29
2023/08/17 02:53:22;;;;;;;2.85;1.98;;;;;;;;;;5039417;28;20245;-29
2023/08/17 02:55:49;;;;;;;3.42;2.10;;;;;;;;;;5056280;28;20210;-29
2023/08/17 02:58:16;;;;;;;3.10;1.73;;;;;;;;;;5051477;28;20198;-29
2023/08/17 03:00:43;;;;;;;5.03;1.90;;;;;;;;;;5055758;28;20226;-29
2023/08/17 03:03:10;;;;;;;3.05;2.13;;;;;;;;;;5064090;28;20202;-28
2023/08/17 03:05:37;;;;;;;2.10;1.90;;;;;;;;;;5073367;28;20223;-27
2023/08/17 03:08:06;;;;;;;2.53;2.03;;;;;;;;;;5051475;28;20297;-30
2023/08/17 03:10:33;;;;;;;3.22;1.90;;;;;;;;;;5066753;28;20244;-29
2023/08/17 03:13:01;;;;;;;5.50;2.30;;;;;;;;;;5056451;28;20329;-27
2023/08/17 03:15:28;;;;;;;2.80;2.00;;;;;;;;;;5050724;28;20232;-30
2023/08/17 03:17:55;;;;;;;2.67;1.85;;;;;;;;;;5049614;28;20212;-27
2023/08/17 03:20:22;;;;;;;3.28;2.33;;;;;;;;;;5050907;28;20234;-31
2023/08/17 03:22:49;;;;;;;2.20;1.90;;;;;;;;;;5036994;28;20202;-29
2023/08/17 03:25:18;;;;;;;2.50;1.90;;;;;;;;;;5057502;28;20197;-31
2023/08/17 03:27:45;;;;;;;1.58;1.50;;;;;;;;;;5046503;28;20216;-30
2023/08/17 03:30:13;;;;;;;1.95;1.85;;;;;;;;;;5047907;28;20317;-28
2023/08/17 03:32:40;;;;;;;2.20;1.85;;;;;;;;;;5063992;28;20434;-30
2023/08/17 03:35:10;;;;;;;4.43;1.85;;;;;;;;;;5061841;28;20197;-29
2023/08/17 03:37:40;;;;;;;3.30;1.80;;;;;;;;;;5037711;28;20205;-31
2023/08/17 03:40:08;;;;;;;2.13;1.92;;;;;;;;;;5035952;28;20354;-27
2023/08/17 03:42:37;;;;;;;3.20;1.90;;;;;;;;;;5043152;28;20288;-26
2023/08/17 03:45:04;;;;;;;2.30;2.10;;;;;;;;;;5046604;28;20209;-28
2023/08/17 03:47:31;;;;;;;2.58;1.95;;;;;;;;;;5046793;28;20207;-28
2023/08/17 03:49:59;;;;;;;2.58;1.73;;;;;;;;;;5044370;28;20244;-30
2023/08/17 03:52:39;;;;;;;4.00;2.00;;;;;;;;;;5049282;28;20224;-27
2023/08/17 03:55:07;;;;;;;3.17;1.98;;;;;;;;;;5052243;28;20189;-25
2023/08/17 03:57:34;;;;;;;4.93;2.22;;;;;;;;;;5046531;28;20230;-29
2023/08/17 04:00:03;;;;;;;3.67;1.95;;;;;;;;;;5041214;28;20292;-29
2023/08/17 04:02:30;;;;;;;2.15;1.92;;;;;;;;;;5046128;28;20209;-30
2023/08/17 04:04:57;;;;;;;2.72;1.95;;;;;;;;;;5050298;28;20288;-27
2023/08/17 04:07:30;;;;;;;4.70;2.15;;;;;;;;;;5046196;28;20193;-27
2023/08/17 04:09:57;;;;;;;1.67;1.58;;;;;;;;;;5054393;28;20221;-32
2023/08/17 04:12:24;;;;;;;4.20;2.20;;;;;;;;;;5051039;28;20310;-33
2023/08/17 04:14:51;;;;;;;2.13;1.95;;;;;;;;;;5046524;28;20284;-26
2023/08/17 04:17:20;;;;;;;4.32;1.80;;;;;;;;;;5050350;28;20204;-31
2023/08/17 04:19:47;;;;;;;3.03;1.90;;;;;;;;;;5051166;28;20240;-29
2023/08/17 04:22:15;;;;;;;3.72;1.90;;;;;;;;;;5043169;28;20212;-30
2023/08/17 04:24:42;;;;;;;4.05;2.70;;;;;;;;;;5048922;28;20270;-28
2023/08/17 04:27:09;;;;;;;3.50;2.20;;;;;;;;;;5066436;28;20213;-27
2023/08/17 04:29:36;;;;;;;4.38;1.92;;;;;;;;;;5064917;28;20232;-28
2023/08/17 04:32:03;;;;;;;3.17;2.35;;;;;;;;;;5064944;28;20288;-29
2023/08/17 04:34:32;;;;;;;3.22;2.55;;;;;;;;;;5073898;28;20193;-28
2023/08/17 04:36:59;;;;;;;3.90;2.83;;;;;;;;;;5073906;28;20315;-25
2023/08/17 04:39:26;;;;;;;5.28;3.13;;;;;;;;;;5051567;28;20238;-30
2023/08/17 04:41:53;;;;;;;3.75;2.17;;;;;;;;;;5066534;28;20264;-28
2023/08/17 04:44:20;;;;;;;7.32;2.97;;;;;;;;;;5056475;28;20205;-28
2023/08/17 04:46:47;;;;;;;6.20;3.10;;;;;;;;;;5059475;28;20209;-30
2023/08/17 04:49:14;;;;;;;5.85;3.42;;;;;;;;;;5056842;28;20225;-30
2023/08/17 04:51:43;;;;;;;7.97;3.92;;;;;;;;;;5055462;28;20217;-30
2023/08/17 04:54:10;;;;;;;4.68;3.22;;;;;;;;;;5050202;28;20256;-27
2023/08/17 04:56:37;;;;;;;8.63;3.33;;;;;;;;;;5058912;28;20202;-28
2023/08/17 04:59:05;;;;;;;8.03;3.40;;;;;;;;;;5048710;28;20236;-29
2023/08/17 05:01:32;;;;;;;8.88;3.63;;;;;;;;;;5067133;28;20233;-30
2023/08/17 05:03:59;;;;;;;8.65;3.92;;;;;;;;;;5059090;28;20209;-29
2023/08/17 05:06:29;;;;;;;7.43;4.03;;;;;;;;;;5054797;28;20202;-29
2023/08/17 05:08:57;;;;;;;12.88;5.57;;;;;;;;;;5052156;28;20235;-28
2023/08/17 05:11:25;;;;;;;12.93;5.87;;;;;;;;;;5052697;28;20650;-26
2023/08/17 05:13:52;;;;;;;5.85;4.10;;;;;;;;;;5053288;28;20230;-28
2023/08/17 05:16:19;;;;;;;10.30;5.13;;;;;;;;;;5056316;28;20209;-30
2023/08/17 05:18:46;;;;;;;9.25;4.38;;;;;;;;;;5076514;28;20239;-29
2023/08/17 05:21:13;;;;;;;7.63;4.23;;;;;;;;;;5076354;28;20209;-31
2023/08/17 05:23:40;;;;;;;10.52;4.50;;;;;;;;;;5059431;28;20259;-29
2023/08/17 05:26:09;;;;;;;10.23;5.60;;;;;;;;;;5054692;28;20197;-31
2023/08/17 05:28:36;;;;;;;10.43;5.87;;;;;;;;;;5063932;28;20208;-29
2023/08/17 05:31:04;;;;;;;7.87;4.97;;;;;;;;;;5058252;28;20300;-31
2023/08/17 05:33:31;;;;;;;10.63;5.97;;;;;;;;;;5054247;28;20217;-30
2023/08/17 05:35:59;;;;;;;12.90;6.60;;;;;;;;;;5050973;28;20210;-28
2023/08/17 05:38:26;;;;;;;10.97;5.17;;;;;;;;;;5054544;28;20228;-31
2023/08/17 05:40:56;;;;;;;15.20;7.73;;;;;;;;;;5069305;28;20214;-28
2023/08/17 05:43:24;;;;;;;14.70;6.65;;;;;;;;;;5065524;28;20201;-28
2023/08/17 05:45:51;;;;;;;9.70;5.30;;;;;;;;;;5053811;28;20206;-25
2023/08/17 05:48:20;;;;;;;11.25;5.80;;;;;;;;;;5053561;28;20202;-31
2023/08/17 05:50:48;;;;;;;13.48;6.90;;;;;;;;;;5054385;28;20209;-28
2023/08/17 05:53:15;;;;;;;9.77;5.43;;;;;;;;;;5049796;28;20282;-26
2023/08/17 05:55:42;;;;;;;12.55;6.93;;;;;;;;;;5053420;28;20210;-29
2023/08/17 05:58:09;;;;;;;15.18;6.53;;;;;;;;;;5060400;28;20207;-27
2023/08/17 06:00:38;;;;;;;10.60;6.97;;;;;;;;;;5052520;28;20221;-25
2023/08/17 06:03:05;;;;;;;11.35;8.25;;;;;;;;;;5070457;28;20201;-30
2023/08/17 06:05:32;;;;;;;14.70;8.52;;;;;;;;;;5064700;28;20229;-28
2023/08/17 06:07:59;;;;;;;13.80;10.25;;;;;;;;;;5038260;28;20213;-29
2023/08/17 06:10:27;;;;;;;9.77;6.38;;;;;;;;;;5073631;28;20223;-27
2023/08/17 06:12:54;;;;;;;19.30;11.20;;;;;;;;;;5065101;28;20225;-29
2023/08/17 06:15:21;;;;;;;13.20;9.20;;;;;;;;;;5058220;28;20273;-31
2023/08/17 06:17:51;;;;;;;14.18;9.40;;;;;;;;;;5064714;28;20211;-26
2023/08/17 06:20:18;;;;;;;18.13;10.95;;;;;;;;;;5073642;28;20229;-30
2023/08/17 06:22:46;;;;;;;16.00;9.77;;;;;;;;;;5054131;28;20209;-26
2023/08/17 06:25:13;;;;;;;11.00;7.72;;;;;;;;;;5050749;28;20301;-31
2023/08/17 06:27:43;;;;;;;13.27;9.07;;;;;;;;;;5052784;28;20201;-26
2023/08/17 06:30:11;;;;;;;10.80;7.27;;;;;;;;;;5043812;28;20258;-29
2023/08/17 06:32:38;;;;;;;9.60;6.83;;;;;;;;;;5073418;28;20288;-30
2023/08/17 06:35:08;;;;;;;12.05;8.73;;;;;;;;;;5073931;28;20209;-29
2023/08/17 06:37:35;;;;;;;10.27;7.65;;;;;;;;;;5053061;28;20229;-28
2023/08/17 06:40:02;;;;;;;14.18;8.45;;;;;;;;;;5049434;28;20225;-27
2023/08/17 06:42:30;;;;;;;11.68;7.82;;;;;;;;;;5051807;28;20205;-29
2023/08/17 06:44:57;;;;;;;12.40;9.27;;;;;;;;;;5049701;28;20209;-29
2023/08/17 06:47:24;;;;;;;10.32;8.15;;;;;;;;;;5059425;28;20280;-30
2023/08/17 06:49:51;;;;;;;14.23;9.68;;;;;;;;;;5053313;28;20610;-26
2023/08/17 06:52:20;;;;;;;13.63;9.50;;;;;;;;;;5039176;28;20213;-29
2023/08/17 06:54:47;;;;;;;13.55;8.07;;;;;;;;;;5062822;28;20223;-31
2023/08/17 06:57:14;;;;;;;13.50;8.48;;;;;;;;;;5056119;28;20206;-27
2023/08/17 06:59:41;;;;;;;12.32;8.98;;;;;;;;;;5052541;28;20284;-28
2023/08/17 07:02:08;;;;;;;13.50;9.98;;;;;;;;;;5059329;28;20205;-24
2023/08/17 07:04:35;;;;;;;14.52;9.48;;;;;;;;;;5072903;28;20205;-29
2023/08/17 07:07:04;;;;;;;12.02;8.25;;;;;;;;;;5072525;28;20203;-25
2023/08/17 07:09:32;;;;;;;14.45;9.30;;;;;;;;;;5040308;28;20221;-27
2023/08/17 07:12:00;;;;;;;15.23;10.38;;;;;;;;;;5064884;28;20204;-31
2023/08/17 07:17:23;;;;;;;13.25;9.38;;;;;;;;;;5043915;28;20242;-39
2023/08/17 07:23:18;;;;;;;16.55;10.80;;;;;;;;;;5049805;28;20211;-38
2023/08/17 07:28:55;;;;;;;12.55;9.68;;;;;;;;;;5036744;28;20237;-37
2023/08/17 07:31:44;;;;;;;9.23;8.23;;;;;;;;;;5053830;28;20201;-38
2023/08/17 07:34:27;;;;;;;12.43;8.85;;;;;;;;;;5049008;28;20272;-39
2023/08/17 07:37:01;;;;;;;12.90;9.32;;;;;;;;;;5053014;28;20248;-36
2023/08/17 07:39:56;;;;;;;12.45;8.27;;;;;;;;;;5053279;28;20221;-41
2023/08/17 07:42:44;;;;;;;8.00;6.60;;;;;;;;;;5034760;28;20273;-38
2023/08/17 07:45:25;;;;;;;13.55;9.23;;;;;;;;;;5042927;28;20205;-40
2023/08/17 07:50:52;;;;;;;10.25;8.80;;;;;;;;;;5070454;22;20245;-40
2023/08/17 07:53:34;;;;;;;12.88;8.65;;;;;;;;;;5064467;28;20206;-39
2023/08/17 08:02:08;;;;;;;10.60;8.43;;;;;;;;;;5065167;28;20744;-41
2023/08/17 08:04:47;;;;;;;8.80;7.38;;;;;;;;;;5061598;28;20197;-44
2023/08/17 08:07:15;;;;;;;10.48;8.27;;;;;;;;;;5071633;28;20227;-38
2023/08/17 08:09:43;;;;;;;8.90;7.03;;;;;;;;;;5068017;28;20234;-41
2023/08/17 08:12:12;;;;;;;8.88;6.50;;;;;;;;;;5069623;28;20258;-46
2023/08/17 08:14:48;;;;;;;9.13;6.95;;;;;;;;;;5059629;28;20229;-41
2023/08/17 08:17:31;;;;;;;7.75;5.20;;;;;;;;;;5062875;28;20197;-40
2023/08/17 08:23:05;;;;;;;9.98;7.28;;;;;;;;;;5058327;28;20210;-42
2023/08/17 08:25:36;;;;;;;11.00;8.30;;;;;;;;;;5066300;28;20290;-41
2023/08/17 08:28:06;;;;;;;10.18;8.50;;;;;;;;;;5055191;28;20293;-43
2023/08/17 08:30:53;;;;;;;9.05;6.85;;;;;;;;;;5053881;28;20230;-38
2023/08/17 08:33:23;;;;;;;10.27;7.80;;;;;;;;;;5060257;28;20526;-38
2023/08/17 08:35:58;;;;;;;11.32;7.32;;;;;;;;;;5068297;28;20257;-40
2023/08/17 08:38:51;;;;;;;7.82;5.95;;;;;;;;;;5065719;28;20752;-43
2023/08/17 08:41:26;;;;;;;11.10;8.13;;;;;;;;;;5062944;28;20213;-40
2023/08/17 08:44:01;;;;;;;11.73;8.73;;;;;;;;;;5055807;28;20211;-41
2023/08/17 08:46:58;;;;;;;8.95;7.45;;;;;;;;;;5057712;28;20211;-40
2023/08/17 08:49:33;;;;;;;9.45;7.22;;;;;;;;;;5062993;28;20241;-39
2023/08/17 08:52:20;;;;;;;9.57;7.93;;;;;;;;;;5063458;28;20234;-38
2023/08/17 08:54:54;;;;;;;9.50;7.75;;;;;;;;;;5056487;28;20322;-41
2023/08/17 09:00:43;;;;;;;10.65;8.25;;;;;;;;;;5077265;22;20232;-33
2023/08/17 09:03:34;;;;;;;9.95;8.60;;;;;;;;;;5063261;28;20292;-39
2023/08/17 09:06:27;;;;;;;9.20;7.53;;;;;;;;;;5053190;28;20215;-41
2023/08/17 09:09:05;;;;;;;8.85;7.10;;;;;;;;;;5077388;22;21409;-41
2023/08/17 09:11:51;;;;;;;11.02;8.27;;;;;;;;;;5049600;28;20205;-38
2023/08/17 09:14:22;;;;;;;10.65;8.10;;;;;;;;;;5059066;28;20231;-40
2023/08/17 09:16:58;;;;;;;8.02;7.15;;;;;;;;;;5056627;28;20300;-41
2023/08/17 09:19:34;;;;;;;8.40;6.88;;;;;;;;;;5058952;28;20229;-37
2023/08/17 09:22:09;;;;;;;10.98;7.95;;;;;;;;;;5045562;28;20206;-40
2023/08/17 09:27:30;;;;;;;7.72;6.93;;;;;;;;;;5072011;28;20258;-44
2023/08/17 09:30:14;;;;;;;8.32;6.97;;;;;;;;;;5070938;28;20224;-42
2023/08/17 09:32:45;;;;;;;10.20;7.65;;;;;;;;;;5091241;28;20204;-42
2023/08/17 09:35:20;;;;;;;6.93;6.20;;;;;;;;;;5087369;28;20224;-35
2023/08/17 09:38:15;;;;;;;9.45;5.55;;;;;;;;;;5073086;28;20219;-41
2023/08/17 09:40:57;;;;;;;7.18;6.47;;;;;;;;;;5079306;28;20251;-41
2023/08/17 09:54:26;;;;;;;;;;;;;;;;;;;;;
2023/08/17 09:57:21;;;;;;;7.00;5.60;;;;;;;;;;5014372;28;20210;-32
2023/08/17 10:00:08;;;;;;;7.10;5.45;;;;;;;;;;5019578;28;20245;-33
2023/08/17 10:02:53;;;;;;;5.90;5.30;;;;;;;;;;5019504;28;20230;-32
2023/08/17 10:05:28;;;;;;;5.65;4.97;;;;;;;;;;5017402;28;20233;-34
2023/08/17 10:08:07;;;;;;;6.30;5.28;;;;;;;;;;5022987;28;20231;-35
2023/08/17 10:10:51;;;;;;;6.22;5.63;;;;;;;;;;5026716;28;20235;-36
2023/08/17 10:13:38;;;;;;;6.32;5.63;;;;;;;;;;5021776;28;20212;-32
2023/08/17 10:16:28;;;;;;;7.38;5.80;;;;;;;;;;5030695;28;20229;-33
2023/08/17 10:19:16;;;;;;;7.18;5.88;;;;;;;;;;5024875;28;20227;-35
2023/08/17 10:22:10;;;;;;;7.57;5.80;;;;;;;;;;5031512;28;20255;-32
2023/08/17 10:46:51;;;;;;;6.18;4.97;;;;;;;;;;5052991;28;20213;-30
2023/08/17 10:49:49;;;;;;;5.80;4.85;;;;;;;;;;5053229;28;20239;-32
2023/08/17 10:52:43;;;;;;;7.00;4.78;;;;;;;;;;5051319;28;20210;-34
2023/08/17 10:55:23;;;;;;;4.53;4.18;;;;;;;;;;5051758;28;20228;-31
2023/08/17 10:58:08;;;;;;;4.85;4.45;;;;;;;;;;5050397;28;20227;-32
2023/08/17 11:00:45;;;;;;;4.95;4.43;;;;;;;;;;5045985;28;20226;-33
2023/08/17 11:03:48;;;;;;;4.53;4.10;;;;;;;;;;5053391;28;20222;-33
2023/08/17 11:06:58;;;;;;;6.15;4.32;;;;;;;;;;5048096;28;20205;-31
2023/08/17 11:10:06;;;;;;;4.45;4.03;;;;;;;;;;5052562;28;20231;-32
2023/08/17 11:12:47;;;;;;;4.25;3.92;;;;;;;;;;5042150;28;20209;-34
2023/08/17 11:15:52;;;;;;;5.32;4.85;;;;;;;;;;5050063;28;20256;-31
2023/08/17 11:47:23;;;;;;;5.55;4.20;;;;;;;;;;5045018;28;20224;-31
2023/08/17 11:50:04;;;;;;;4.78;4.03;;;;;;;;;;5043975;28;20235;-36
2023/08/17 11:52:42;;;;;;;4.32;3.97;;;;;;;;;;5051860;28;20207;-31
2023/08/17 11:55:24;;;;;;;7.05;4.70;;;;;;;;;;5063552;28;20666;-32
2023/08/17 11:58:01;;;;;;;6.35;4.78;;;;;;;;;;5060575;28;20244;-33
2023/08/17 12:00:55;;;;;;;5.20;4.22;;;;;;;;;;5055780;28;20232;-31
2023/08/17 12:06:47;;;;;;;7.75;4.30;;;;;;;;;;5059474;28;20194;-36
2023/08/17 12:47:09;;;;;;;6.18;3.97;;;;;;;;;;5032143;28;20213;-32
2023/08/17 12:49:58;;;;;;;5.15;4.53;;;;;;;;;;5029805;28;20248;-30
2023/08/17 13:00:30;;;;;;;5.95;4.40;;;;;;;;;;5014720;28;20238;-33
2023/08/17 13:03:04;;;;;;;5.10;4.70;;;;;;;;;;5016320;28;20538;-33
2023/08/17 13:05:44;;;;;;;5.45;4.95;;;;;;;;;;5016568;28;20225;-34
2023/08/17 13:08:18;;;;;;;6.38;5.50;;;;;;;;;;5009969;28;20208;-33
2023/08/17 13:10:54;;;;;;;9.93;7.68;;;;;;;;;;5016049;28;20256;-33
2023/08/17 13:13:26;;;;;;;6.72;5.78;;;;;;;;;;5011546;28;20200;-35
2023/08/17 13:16:22;;;;;;;6.47;5.72;;;;;;;;;;5016361;28;20222;-32
2023/08/17 13:18:56;;;;;;;7.88;5.97;;;;;;;;;;5016487;28;20234;-30
2023/08/17 13:21:41;;;;;;;6.30;5.70;;;;;;;;;;5014197;28;20229;-32
2023/08/17 13:32:12;;;;;;;6.95;6.10;;;;;;;;;;5036622;28;20312;-33
2023/08/17 13:37:26;;;;;;;7.10;6.50;;;;;;;;;;5047024;28;20686;-34
2023/08/17 13:50:43;;;;;;;6.45;5.85;;;;;;;;;;5033931;28;20230;-32
2023/08/17 13:53:33;;;;;;;8.30;6.22;;;;;;;;;;5030559;28;20220;-31
2023/08/17 14:24:28;;;;;;;;;;;;;;;;;;;;;
2023/08/17 14:27:31;;;;;;;8.20;6.18;;;;;;;;;;5050563;28;20207;-34
2023/08/17 14:30:24;;;;;;;6.65;5.97;;;;;;;;;;5037545;28;20717;-33
2023/08/17 14:33:15;;;;;;;7.57;6.18;;;;;;;;;;5033777;28;20213;-32
2023/08/17 14:36:02;;;;;;;6.57;5.60;;;;;;;;;;5027845;28;20323;-32
2023/08/17 14:49:50;;;;;;;10.75;6.28;;;;;;;;;;5021465;28;20289;-42
2023/08/17 14:52:43;;;;;;;7.40;6.63;;;;;;;;;;5052700;28;20658;-46
2023/08/17 15:09:04;;;;;;;11.63;6.72;;;;;;;;;;5012306;28;20251;-31
2023/08/17 15:12:02;;;;;;;6.80;5.43;;;;;;;;;;5034402;28;20219;-32
2023/08/17 15:14:56;;;;;;;6.20;5.63;;;;;;;;;;5024577;28;20619;-31
2023/08/17 15:20:42;;;;;;;9.85;5.07;;;;;;;;;;5034038;28;20228;-32
2023/08/17 15:23:30;;;;;;;7.15;5.65;;;;;;;;;;5027866;28;20215;-31
2023/08/17 15:28:42;;;;;;;5.55;5.05;;;;;;;;;;5068087;28;20224;-30
2023/08/17 15:34:43;;;;;;;5.45;4.75;;;;;;;;;;5053397;28;20245;-30
2023/08/17 15:37:37;;;;;;;5.68;4.90;;;;;;;;;;5054988;28;20260;-32
2023/08/17 15:48:36;;;;;;;8.18;5.63;;;;;;;;;;5069015;28;20273;-33
2023/08/17 15:51:20;;;;;;;5.88;5.38;;;;;;;;;;5053803;28;20291;-30
2023/08/17 15:54:13;;;;;;;5.80;4.85;;;;;;;;;;5047311;28;20247;-34
2023/08/17 15:57:18;;;;;;;6.53;5.03;;;;;;;;;;5046032;28;20220;-31
2023/08/17 16:00:14;;;;;;;6.10;4.95;;;;;;;;;;5048002;28;20544;-36
2023/08/17 16:09:55;;;;;;;8.10;5.43;;;;;;;;;;5033660;22;20276;-30
2023/08/17 16:15:54;;;;;;;5.45;4.95;;;;;;;;;;5057001;28;20247;-30
2023/08/17 16:19:02;;;;;;;5.20;4.78;;;;;;;;;;5072134;28;20199;-34
2023/08/17 16:22:03;;;;;;;6.18;4.95;;;;;;;;;;5071651;28;20212;-33
2023/08/17 16:41:06;;;;;;;6.15;5.53;;;;;;;;;;5127696;22;20296;-33
2023/08/17 16:43:50;;;;;;;5.82;5.32;;;;;;;;;;5071427;28;20243;-31
2023/08/17 16:52:40;;;;;;;8.70;5.45;;;;;;;;;;5066683;28;20244;-32
2023/08/17 16:58:28;;;;;;;5.63;5.13;;;;;;;;;;5064535;28;20216;-31
2023/08/17 17:01:01;;;;;;;5.82;5.07;;;;;;;;;;5070253;28;20231;-32
2023/08/17 17:32:18;;;;;;;6.90;6.10;;;;;;;;;;5056155;28;20215;-32
2023/08/17 17:35:00;;;;;;;7.50;6.80;;;;;;;;;;5056263;28;20213;-31
2023/08/17 18:04:13;;;;;;;9.60;6.93;;;;;;;;;;5004683;28;20228;-33
2023/08/17 18:06:55;;;;;;;7.75;7.05;;;;;;;;;;5003417;28;20294;-31
2023/08/17 18:12:32;;;;;;;8.23;6.97;;;;;;;;;;5039522;28;20219;-37
2023/08/17 18:15:34;;;;;;;7.72;6.68;;;;;;;;;;5046501;28;20226;-40
2023/08/17 18:18:22;;;;;;;7.30;6.55;;;;;;;;;;5042826;28;20207;-40
2023/08/17 18:21:09;;;;;;;7.95;7.18;;;;;;;;;;5029205;28;20216;-35
2023/08/17 18:23:58;;;;;;;8.93;5.90;;;;;;;;;;5016685;28;20293;-39
2023/08/17 18:27:10;;;;;;;8.63;6.28;;;;;;;;;;5033616;28;20227;-42
2023/08/17 18:32:38;;;;;;;6.82;6.20;;;;;;;;;;5061114;28;20263;-39
2023/08/17 18:35:43;;;;;;;7.47;6.63;;;;;;;;;;5055363;28;20668;-41
2023/08/17 18:38:48;;;;;;;6.43;5.82;;;;;;;;;;5054176;28;20205;-42
2023/08/17 18:41:27;;;;;;;6.82;5.88;;;;;;;;;;5054157;28;20299;-42
2023/08/17 18:47:07;;;;;;;8.88;6.22;;;;;;;;;;5025738;28;20214;-44
2023/08/17 18:49:57;;;;;;;7.05;6.40;;;;;;;;;;5016010;28;20230;-39
2023/08/17 18:53:05;;;;;;;6.57;5.93;;;;;;;;;;5032500;28;20317;-39
2023/08/17 19:02:01;;;;;;;10.43;7.35;;;;;;;;;;5043455;28;20206;-43
2023/08/17 19:07:30;;;;;;;7.47;6.55;;;;;;;;;;5018856;28;20289;-41
2023/08/17 19:10:16;;;;;;;9.13;7.32;;;;;;;;;;5037541;28;20755;-40
2023/08/17 19:12:58;;;;;;;7.72;6.90;;;;;;;;;;5016072;28;20670;-41
2023/08/17 19:15:27;;;;;;;14.70;7.60;;;;;;;;;;5034039;28;20878;-43
2023/08/17 19:18:00;;;;;;;7.72;6.80;;;;;;;;;;5041090;28;20689;-45
2023/08/17 19:23:38;;;;;;;7.63;6.25;;;;;;;;;;5075280;28;20211;-44
2023/08/17 19:26:40;;;;;;;9.07;6.45;;;;;;;;;;5086098;28;20209;-38
2023/08/17 19:29:14;;;;;;;7.00;6.35;;;;;;;;;;5082318;28;20357;-37
2023/08/17 19:31:45;;;;;;;7.20;6.50;;;;;;;;;;5074582;28;20241;-43
2023/08/17 19:37:21;;;;;;;6.97;6.28;;;;;;;;;;5092928;28;20308;-44
2023/08/17 19:39:57;;;;;;;8.98;7.13;;;;;;;;;;5064709;28;20284;-40
2023/08/17 19:42:26;;;;;;;7.20;6.53;;;;;;;;;;5073276;28;20233;-44
2023/08/17 19:44:59;;;;;;;6.72;6.13;;;;;;;;;;5073874;28;20227;-40
2023/08/17 19:47:47;;;;;;;9.40;6.70;;;;;;;;;;5093121;28;20286;-42
2023/08/17 19:50:17;;;;;;;7.25;6.55;;;;;;;;;;5095670;28;20236;-42
2023/08/17 19:52:44;;;;;;;7.15;6.45;;;;;;;;;;5080750;28;20258;-42
2023/08/17 19:55:11;;;;;;;8.05;6.43;;;;;;;;;;5066624;28;20214;-38
2023/08/17 19:57:39;;;;;;;8.13;6.47;;;;;;;;;;5069361;28;20226;-35
2023/08/17 20:00:11;;;;;;;7.82;6.05;;;;;;;;;;5070273;28;20231;-37
2023/08/17 20:02:38;;;;;;;8.23;5.78;;;;;;;;;;5087957;28;20202;-40
2023/08/17 20:05:05;;;;;;;7.10;5.80;;;;;;;;;;5071310;28;20211;-37
2023/08/17 20:07:34;;;;;;;9.63;6.18;;;;;;;;;;5066412;28;20224;-39
2023/08/17 20:10:01;;;;;;;6.50;5.07;;;;;;;;;;5079551;28;20214;-35
2023/08/17 20:12:29;;;;;;;6.15;5.55;;;;;;;;;;5091195;28;20214;-37
2023/08/17 20:14:56;;;;;;;6.80;5.20;;;;;;;;;;5069835;28;20213;-40
2023/08/17 20:17:26;;;;;;;6.03;4.45;;;;;;;;;;5089796;28;20218;-38
2023/08/17 20:20:00;;;;;;;5.13;4.55;;;;;;;;;;5067840;28;20258;-38
2023/08/17 20:22:29;;;;;;;5.82;4.75;;;;;;;;;;5071545;28;20740;-38
2023/08/17 20:24:58;;;;;;;5.00;4.50;;;;;;;;;;5075780;28;20231;-37
2023/08/17 20:27:26;;;;;;;4.40;4.00;;;;;;;;;;5065133;28;20815;-39
2023/08/17 20:29:53;;;;;;;6.40;4.80;;;;;;;;;;5059709;28;20297;-43
2023/08/17 20:32:20;;;;;;;5.93;4.28;;;;;;;;;;5078326;28;20214;-40
2023/08/17 20:34:49;;;;;;;4.88;4.35;;;;;;;;;;5070730;28;20234;-37
2023/08/17 20:37:16;;;;;;;4.72;4.22;;;;;;;;;;5063449;28;20322;-37
2023/08/17 20:39:46;;;;;;;4.88;4.38;;;;;;;;;;5075733;28;20255;-41
2023/08/17 20:42:13;;;;;;;4.95;4.40;;;;;;;;;;5073638;28;20208;-34
2023/08/17 20:44:44;;;;;;;4.10;3.80;;;;;;;;;;5071716;28;20194;-40
2023/08/17 20:47:11;;;;;;;4.95;3.65;;;;;;;;;;5078563;28;20201;-36
2023/08/17 20:49:40;;;;;;;4.20;3.80;;;;;;;;;;5070338;28;20235;-43
2023/08/17 20:52:09;;;;;;;3.72;3.42;;;;;;;;;;5063585;28;20216;-36
2023/08/17 20:54:45;;;;;;;4.80;4.03;;;;;;;;;;5065531;28;20200;-38
2023/08/17 20:57:13;;;;;;;3.90;3.50;;;;;;;;;;5081646;28;20249;-37
2023/08/17 20:59:41;;;;;;;3.80;3.50;;;;;;;;;;5090251;22;20239;-38
2023/08/17 21:02:18;;;;;;;4.38;3.67;;;;;;;;;;5069074;28;20207;-39
2023/08/17 21:05:29;;;;;;;;;;;;;;;;;;;;;
2023/08/17 21:08:05;;;;;;;4.25;3.08;;;;;;;;;;5060313;28;20214;-41
2023/08/17 21:10:47;;;;;;;6.28;3.30;;;;;;;;;;5068065;28;20225;-38
2023/08/17 21:13:33;;;;;;;3.95;3.25;;;;;;;;;;5068164;28;20209;-42